Saltburn-by-the-Sea, United Kingdom
Current Conditions -  °F | °C
As of 10:50 AM on Thursday 27 Nov 2014 (Local Time) from EGNV Reporting Station
Haze Haze  
Wind Chill: 46°   Ceiling: Unl
Heat Index: 46°   Visibility: 0.93mi
Dew Point: 45°   Wind: 1mph
Humidity: 93%   Direction: NA
Pressure: 29.62"   Gusts: NA
Location:  54.58°N, 0.97°W
Report Text: EGNV 271050Z VRB01KT 1500 R23/P1000 BR SCT002 08/07 Q1003
Loading
Personal Weather Stations






























Interactive Weather Map New forecast layout! Learn more

10-Day Weather Forecast

Advertisements
Track Severe Weather on mobile